sensor_id;sensor_type;location;lat;lon;timestamp;pressure;altitude;pressure_sealevel;temperature;humidity
39887;BME280;25559;44.738;20.980;2022-08-03T00:01:20;100653.66;;;23.31;nan
39887;BME280;25559;44.738;20.980;2022-08-03T00:03:45;100655.75;;;23.26;nan
39887;BME280;25559;44.738;20.980;2022-08-03T00:06:11;100655.13;;;23.22;nan
39887;BME280;25559;44.738;20.980;2022-08-03T00:08:36;100650.97;;;23.18;nan
39887;BME280;25559;44.738;20.980;2022-08-03T00:11:02;100660.72;;;23.17;nan
39887;BME280;25559;44.738;20.980;2022-08-03T00:13:28;100660.91;;;23.14;nan
39887;BME280;25559;44.738;20.980;2022-08-03T00:15:54;100661.41;;;23.06;nan
39887;BME280;25559;44.738;20.980;2022-08-03T00:18:20;100651.03;;;23.03;nan
39887;BME280;25559;44.738;20.980;2022-08-03T00:20:46;100651.97;;;23.02;nan
39887;BME280;25559;44.738;20.980;2022-08-03T00:23:12;100645.50;;;22.94;nan
39887;BME280;25559;44.738;20.980;2022-08-03T00:25:38;100648.22;;;22.92;nan
39887;BME280;25559;44.738;20.980;2022-08-03T00:28:04;100649.56;;;22.85;nan
39887;BME280;25559;44.738;20.980;2022-08-03T00:30:31;100647.34;;;22.79;nan
39887;BME280;25559;44.738;20.980;2022-08-03T00:32:58;100642.94;;;22.79;nan
39887;BME280;25559;44.738;20.980;2022-08-03T00:35:23;100647.66;;;22.74;nan
39887;BME280;25559;44.738;20.980;2022-08-03T00:37:49;100646.06;;;22.71;nan
39887;BME280;25559;44.738;20.980;2022-08-03T00:40:16;100646.38;;;22.67;nan
39887;BME280;25559;44.738;20.980;2022-08-03T00:42:56;100655.22;;;22.66;nan
39887;BME280;25559;44.738;20.980;2022-08-03T00:45:28;100648.63;;;22.59;nan
39887;BME280;25559;44.738;20.980;2022-08-03T00:47:54;100647.03;;;22.56;nan
39887;BME280;25559;44.738;20.980;2022-08-03T00:50:21;100655.16;;;22.53;nan
39887;BME280;25559;44.738;20.980;2022-08-03T00:52:48;100659.69;;;22.51;nan
39887;BME280;25559;44.738;20.980;2022-08-03T00:55:14;100648.59;;;22.46;nan
39887;BME280;25559;44.738;20.980;2022-08-03T00:57:41;100648.03;;;22.41;nan
39887;BME280;25559;44.738;20.980;2022-08-03T01:00:09;100643.31;;;22.31;nan
39887;BME280;25559;44.738;20.980;2022-08-03T01:02:36;100642.75;;;22.26;nan
39887;BME280;25559;44.738;20.980;2022-08-03T01:05:01;100653.50;;;22.23;nan
39887;BME280;25559;44.738;20.980;2022-08-03T01:10:46;100660.94;;;22.16;nan
39887;BME280;25559;44.738;20.980;2022-08-03T01:13:28;100659.56;;;22.11;nan
39887;BME280;25559;44.738;20.980;2022-08-03T01:16:17;100659.84;;;22.06;nan
39887;BME280;25559;44.738;20.980;2022-08-03T01:19:30;100664.53;;;22.01;nan
39887;BME280;25559;44.738;20.980;2022-08-03T01:27:35;100658.41;;;22.00;nan
39887;BME280;25559;44.738;20.980;2022-08-03T01:30:10;100656.63;;;22.01;nan
39887;BME280;25559;44.738;20.980;2022-08-03T01:33:23;100661.72;;;22.04;nan
39887;BME280;25559;44.738;20.980;2022-08-03T01:35:44;100657.66;;;21.98;nan
39887;BME280;25559;44.738;20.980;2022-08-03T01:38:14;100648.06;;;21.97;nan
39887;BME280;25559;44.738;20.980;2022-08-03T01:40:43;100657.94;;;22.08;nan
39887;BME280;25559;44.738;20.980;2022-08-03T01:43:12;100663.13;;;22.10;nan
39887;BME280;25559;44.738;20.980;2022-08-03T01:45:40;100671.88;;;22.10;nan
39887;BME280;25559;44.738;20.980;2022-08-03T01:48:09;100663.22;;;22.08;nan
39887;BME280;25559;44.738;20.980;2022-08-03T01:50:36;100668.50;;;22.08;nan
39887;BME280;25559;44.738;20.980;2022-08-03T01:53:02;100666.69;;;22.09;nan
39887;BME280;25559;44.738;20.980;2022-08-03T01:55:30;100664.06;;;22.09;nan
39887;BME280;25559;44.738;20.980;2022-08-03T01:57:58;100665.97;;;22.07;nan
39887;BME280;25559;44.738;20.980;2022-08-03T02:00:26;100663.22;;;22.08;nan
39887;BME280;25559;44.738;20.980;2022-08-03T02:02:53;100658.97;;;22.06;nan
39887;BME280;25559;44.738;20.980;2022-08-03T02:05:20;100659.84;;;22.06;nan
39887;BME280;25559;44.738;20.980;2022-08-03T02:07:47;100661.53;;;22.07;nan
39887;BME280;25559;44.738;20.980;2022-08-03T02:10:18;100652.03;;;22.05;nan
39887;BME280;25559;44.738;20.980;2022-08-03T02:12:44;100654.75;;;22.03;nan
39887;BME280;25559;44.738;20.980;2022-08-03T02:15:11;100648.50;;;22.04;nan
39887;BME280;25559;44.738;20.980;2022-08-03T02:17:37;100653.50;;;22.09;nan
39887;BME280;25559;44.738;20.980;2022-08-03T02:20:04;100665.56;;;22.13;nan
39887;BME280;25559;44.738;20.980;2022-08-03T02:22:32;100657.47;;;22.16;nan
39887;BME280;25559;44.738;20.980;2022-08-03T02:24:58;100659.81;;;22.21;nan
39887;BME280;25559;44.738;20.980;2022-08-03T02:27:25;100657.81;;;22.24;nan
39887;BME280;25559;44.738;20.980;2022-08-03T02:30:01;100652.53;;;22.24;nan
39887;BME280;25559;44.738;20.980;2022-08-03T02:32:33;100648.78;;;22.28;nan
39887;BME280;25559;44.738;20.980;2022-08-03T02:35:02;100654.75;;;22.32;nan
39887;BME280;25559;44.738;20.980;2022-08-03T02:37:33;100665.97;;;22.35;nan
39887;BME280;25559;44.738;20.980;2022-08-03T02:40:04;100660.69;;;22.35;nan
39887;BME280;25559;44.738;20.980;2022-08-03T02:42:32;100657.19;;;22.35;nan
39887;BME280;25559;44.738;20.980;2022-08-03T02:45:02;100663.22;;;22.37;nan
39887;BME280;25559;44.738;20.980;2022-08-03T02:47:30;100660.78;;;22.34;nan
39887;BME280;25559;44.738;20.980;2022-08-03T02:49:57;100649.81;;;22.26;nan
39887;BME280;25559;44.738;20.980;2022-08-03T02:52:27;100665.34;;;22.30;nan
39887;BME280;25559;44.738;20.980;2022-08-03T02:54:58;100665.34;;;22.30;nan
39887;BME280;25559;44.738;20.980;2022-08-03T02:57:26;100667.97;;;22.32;nan
39887;BME280;25559;44.738;20.980;2022-08-03T02:59:54;100666.25;;;22.31;nan
39887;BME280;25559;44.738;20.980;2022-08-03T03:02:20;100660.03;;;22.32;nan
39887;BME280;25559;44.738;20.980;2022-08-03T03:04:49;100657.31;;;22.33;nan
39887;BME280;25559;44.738;20.980;2022-08-03T03:07:15;100663.78;;;22.28;nan
39887;BME280;25559;44.738;20.980;2022-08-03T03:09:42;100670.81;;;22.27;nan
39887;BME280;25559;44.738;20.980;2022-08-03T03:12:09;100666.31;;;22.29;nan
39887;BME280;25559;44.738;20.980;2022-08-03T03:14:36;100677.66;;;22.31;nan
39887;BME280;25559;44.738;20.980;2022-08-03T03:17:02;100682.81;;;22.33;nan
39887;BME280;25559;44.738;20.980;2022-08-03T03:19:29;100679.16;;;22.35;nan
39887;BME280;25559;44.738;20.980;2022-08-03T03:21:58;100679.16;;;22.35;nan
39887;BME280;25559;44.738;20.980;2022-08-03T03:24:25;100673.03;;;22.35;nan
39887;BME280;25559;44.738;20.980;2022-08-03T03:26:52;100690.47;;;22.38;nan
39887;BME280;25559;44.738;20.980;2022-08-03T03:29:18;100688.78;;;22.37;nan
39887;BME280;25559;44.738;20.980;2022-08-03T03:31:44;100692.25;;;22.37;nan
39887;BME280;25559;44.738;20.980;2022-08-03T03:34:10;100686.97;;;22.37;nan
39887;BME280;25559;44.738;20.980;2022-08-03T03:36:37;100702.53;;;22.42;nan
39887;BME280;25559;44.738;20.980;2022-08-03T03:39:02;100696.31;;;22.43;nan
39887;BME280;25559;44.738;20.980;2022-08-03T03:41:28;100690.84;;;22.46;nan
39887;BME280;25559;44.738;20.980;2022-08-03T03:43:54;100703.19;;;22.45;nan
39887;BME280;25559;44.738;20.980;2022-08-03T03:46:20;100702.34;;;22.45;nan
39887;BME280;25559;44.738;20.980;2022-08-03T03:48:46;100696.13;;;22.46;nan
39887;BME280;25559;44.738;20.980;2022-08-03T03:51:12;100688.31;;;22.44;nan
39887;BME280;25559;44.738;20.980;2022-08-03T03:53:37;100696.66;;;22.51;nan
39887;BME280;25559;44.738;20.980;2022-08-03T03:56:03;100700.91;;;22.53;nan
39887;BME280;25559;44.738;20.980;2022-08-03T03:58:30;100703.25;;;22.58;nan
39887;BME280;25559;44.738;20.980;2022-08-03T04:00:56;100705.81;;;22.60;nan
39887;BME280;25559;44.738;20.980;2022-08-03T04:03:22;100696.75;;;22.64;nan
39887;BME280;25559;44.738;20.980;2022-08-03T04:05:48;100698.81;;;22.73;nan
39887;BME280;25559;44.738;20.980;2022-08-03T04:08:33;100708.00;;;22.80;nan
39887;BME280;25559;44.738;20.980;2022-08-03T04:11:21;100708.38;;;22.88;nan
39887;BME280;25559;44.738;20.980;2022-08-03T04:13:55;100712.31;;;22.96;nan
39887;BME280;25559;44.738;20.980;2022-08-03T04:16:26;100716.25;;;23.03;nan
39887;BME280;25559;44.738;20.980;2022-08-03T04:18:58;100717.56;;;23.10;nan
39887;BME280;25559;44.738;20.980;2022-08-03T04:21:27;100724.78;;;23.21;nan
39887;BME280;25559;44.738;20.980;2022-08-03T04:23:55;100724.19;;;23.30;nan
39887;BME280;25559;44.738;20.980;2022-08-03T04:26:23;100727.19;;;23.38;nan
39887;BME280;25559;44.738;20.980;2022-08-03T04:28:53;100731.97;;;23.46;nan
39887;BME280;25559;44.738;20.980;2022-08-03T04:31:23;100739.28;;;23.55;nan
39887;BME280;25559;44.738;20.980;2022-08-03T04:33:52;100736.00;;;23.65;nan
39887;BME280;25559;44.738;20.980;2022-08-03T04:36:24;100733.25;;;23.66;nan
39887;BME280;25559;44.738;20.980;2022-08-03T04:38:59;100744.16;;;23.74;nan
39887;BME280;25559;44.738;20.980;2022-08-03T04:41:27;100743.72;;;23.81;nan
39887;BME280;25559;44.738;20.980;2022-08-03T04:43:55;100748.75;;;23.85;nan
39887;BME280;25559;44.738;20.980;2022-08-03T04:46:23;100747.69;;;23.88;nan
39887;BME280;25559;44.738;20.980;2022-08-03T04:48:50;100754.47;;;23.92;nan
39887;BME280;25559;44.738;20.980;2022-08-03T04:51:16;100754.28;;;23.95;nan
39887;BME280;25559;44.738;20.980;2022-08-03T04:53:42;100753.75;;;24.03;nan
39887;BME280;25559;44.738;20.980;2022-08-03T04:56:08;100753.09;;;24.12;nan
39887;BME280;25559;44.738;20.980;2022-08-03T04:58:34;100755.22;;;24.20;nan
39887;BME280;25559;44.738;20.980;2022-08-03T05:01:00;100749.47;;;24.26;nan
39887;BME280;25559;44.738;20.980;2022-08-03T05:03:25;100751.69;;;24.32;nan
39887;BME280;25559;44.738;20.980;2022-08-03T05:05:52;100763.03;;;24.47;nan
39887;BME280;25559;44.738;20.980;2022-08-03T05:08:18;100766.72;;;24.57;nan
39887;BME280;25559;44.738;20.980;2022-08-03T05:10:43;100771.38;;;24.67;nan
39887;BME280;25559;44.738;20.980;2022-08-03T05:13:09;100777.09;;;24.73;nan
39887;BME280;25559;44.738;20.980;2022-08-03T05:15:37;100776.22;;;24.86;nan
39887;BME280;25559;44.738;20.980;2022-08-03T05:18:03;100771.69;;;24.99;nan
39887;BME280;25559;44.738;20.980;2022-08-03T05:20:28;100765.63;;;25.10;nan
39887;BME280;25559;44.738;20.980;2022-08-03T05:22:55;100777.13;;;25.22;nan
39887;BME280;25559;44.738;20.980;2022-08-03T05:25:21;100769.38;;;25.31;nan
39887;BME280;25559;44.738;20.980;2022-08-03T05:27:47;100781.63;;;25.45;nan
39887;BME280;25559;44.738;20.980;2022-08-03T05:30:13;100781.66;;;25.57;nan
39887;BME280;25559;44.738;20.980;2022-08-03T05:32:38;100781.34;;;25.73;nan
39887;BME280;25559;44.738;20.980;2022-08-03T05:35:04;100783.91;;;25.85;nan
39887;BME280;25559;44.738;20.980;2022-08-03T05:37:30;100786.72;;;25.95;nan
39887;BME280;25559;44.738;20.980;2022-08-03T05:39:55;100784.97;;;26.07;nan
39887;BME280;25559;44.738;20.980;2022-08-03T05:42:21;100782.91;;;26.22;nan
39887;BME280;25559;44.738;20.980;2022-08-03T05:44:46;100787.75;;;26.39;nan
39887;BME280;25559;44.738;20.980;2022-08-03T05:47:12;100785.94;;;26.51;nan
39887;BME280;25559;44.738;20.980;2022-08-03T05:49:37;100776.25;;;26.62;nan
39887;BME280;25559;44.738;20.980;2022-08-03T05:52:03;100790.41;;;26.73;nan
39887;BME280;25559;44.738;20.980;2022-08-03T05:54:29;100794.75;;;26.86;nan
39887;BME280;25559;44.738;20.980;2022-08-03T05:56:54;100783.34;;;26.95;nan
39887;BME280;25559;44.738;20.980;2022-08-03T05:59:20;100790.81;;;27.12;nan
39887;BME280;25559;44.738;20.980;2022-08-03T06:01:46;100789.94;;;27.23;nan
39887;BME280;25559;44.738;20.980;2022-08-03T06:04:12;100792.84;;;27.32;nan
39887;BME280;25559;44.738;20.980;2022-08-03T06:06:37;100798.69;;;27.46;nan
39887;BME280;25559;44.738;20.980;2022-08-03T06:09:03;100800.47;;;27.57;nan
39887;BME280;25559;44.738;20.980;2022-08-03T06:11:29;100805.22;;;27.75;nan
39887;BME280;25559;44.738;20.980;2022-08-03T06:13:54;100803.09;;;27.90;nan
39887;BME280;25559;44.738;20.980;2022-08-03T06:16:20;100808.50;;;27.99;nan
39887;BME280;25559;44.738;20.980;2022-08-03T06:18:45;100811.13;;;28.11;nan
39887;BME280;25559;44.738;20.980;2022-08-03T06:21:11;100805.97;;;28.19;nan
39887;BME280;25559;44.738;20.980;2022-08-03T06:23:36;100808.69;;;28.29;nan
39887;BME280;25559;44.738;20.980;2022-08-03T06:26:02;100812.34;;;28.38;nan
39887;BME280;25559;44.738;20.980;2022-08-03T06:28:28;100817.00;;;28.45;nan
39887;BME280;25559;44.738;20.980;2022-08-03T06:30:53;100819.75;;;28.55;nan
39887;BME280;25559;44.738;20.980;2022-08-03T06:33:19;100812.31;;;28.59;nan
39887;BME280;25559;44.738;20.980;2022-08-03T06:35:44;100800.28;;;28.64;nan
39887;BME280;25559;44.738;20.980;2022-08-03T06:38:10;100807.19;;;28.77;nan
39887;BME280;25559;44.738;20.980;2022-08-03T06:40:37;100810.34;;;28.92;nan
39887;BME280;25559;44.738;20.980;2022-08-03T06:43:06;100813.31;;;29.08;nan
39887;BME280;25559;44.738;20.980;2022-08-03T06:45:33;100820.66;;;29.26;nan
39887;BME280;25559;44.738;20.980;2022-08-03T06:48:08;100816.88;;;29.28;nan
39887;BME280;25559;44.738;20.980;2022-08-03T06:50:34;100812.41;;;29.38;nan
39887;BME280;25559;44.738;20.980;2022-08-03T06:53:00;100813.94;;;29.51;nan
39887;BME280;25559;44.738;20.980;2022-08-03T06:55:26;100822.50;;;29.64;nan
39887;BME280;25559;44.738;20.980;2022-08-03T06:57:52;100815.19;;;29.76;nan
39887;BME280;25559;44.738;20.980;2022-08-03T07:00:18;100825.84;;;29.95;nan
39887;BME280;25559;44.738;20.980;2022-08-03T07:02:44;100822.06;;;30.08;nan
39887;BME280;25559;44.738;20.980;2022-08-03T07:05:10;100827.63;;;30.24;nan
39887;BME280;25559;44.738;20.980;2022-08-03T07:07:36;100830.66;;;30.39;nan
39887;BME280;25559;44.738;20.980;2022-08-03T07:10:03;100827.66;;;30.62;nan
39887;BME280;25559;44.738;20.980;2022-08-03T07:12:30;100818.53;;;30.82;nan
39887;BME280;25559;44.738;20.980;2022-08-03T07:14:57;100824.41;;;31.14;nan
39887;BME280;25559;44.738;20.980;2022-08-03T07:17:23;100824.22;;;31.43;nan
39887;BME280;25559;44.738;20.980;2022-08-03T07:19:49;100824.97;;;31.71;nan
39887;BME280;25559;44.738;20.980;2022-08-03T07:22:14;100818.78;;;31.97;nan
39887;BME280;25559;44.738;20.980;2022-08-03T07:24:40;100806.75;;;32.19;nan
39887;BME280;25559;44.738;20.980;2022-08-03T07:27:09;100820.94;;;32.46;nan
39887;BME280;25559;44.738;20.980;2022-08-03T07:29:35;100821.00;;;32.63;nan
39887;BME280;25559;44.738;20.980;2022-08-03T07:32:02;100830.53;;;32.91;nan
39887;BME280;25559;44.738;20.980;2022-08-03T07:34:28;100816.50;;;33.14;nan
39887;BME280;25559;44.738;20.980;2022-08-03T07:36:54;100827.47;;;33.54;nan
39887;BME280;25559;44.738;20.980;2022-08-03T07:39:19;100826.31;;;33.89;nan
39887;BME280;25559;44.738;20.980;2022-08-03T07:41:45;100816.63;;;34.44;nan
39887;BME280;25559;44.738;20.980;2022-08-03T07:44:11;100822.88;;;35.08;nan
39887;BME280;25559;44.738;20.980;2022-08-03T07:46:37;100812.78;;;35.79;nan
39887;BME280;25559;44.738;20.980;2022-08-03T07:49:02;100817.16;;;36.55;nan
39887;BME280;25559;44.738;20.980;2022-08-03T07:51:28;100812.88;;;37.33;nan
39887;BME280;25559;44.738;20.980;2022-08-03T07:53:54;100822.81;;;38.11;nan
39887;BME280;25559;44.738;20.980;2022-08-03T07:56:22;100823.03;;;38.93;nan
39887;BME280;25559;44.738;20.980;2022-08-03T07:58:50;100821.25;;;39.80;nan
39887;BME280;25559;44.738;20.980;2022-08-03T08:01:16;100830.84;;;40.68;nan
39887;BME280;25559;44.738;20.980;2022-08-03T08:03:44;100816.25;;;41.59;nan
39887;BME280;25559;44.738;20.980;2022-08-03T08:06:10;100824.97;;;42.48;nan
39887;BME280;25559;44.738;20.980;2022-08-03T08:08:37;100826.47;;;43.23;nan
39887;BME280;25559;44.738;20.980;2022-08-03T08:11:03;100823.19;;;43.80;nan
39887;BME280;25559;44.738;20.980;2022-08-03T08:13:29;100829.22;;;44.30;nan
39887;BME280;25559;44.738;20.980;2022-08-03T08:15:54;100835.41;;;44.95;nan
39887;BME280;25559;44.738;20.980;2022-08-03T08:18:20;100838.31;;;45.73;nan
39887;BME280;25559;44.738;20.980;2022-08-03T08:20:46;100844.03;;;46.50;nan
39887;BME280;25559;44.738;20.980;2022-08-03T08:23:12;100841.78;;;47.28;nan
39887;BME280;25559;44.738;20.980;2022-08-03T08:25:37;100848.84;;;47.99;nan
39887;BME280;25559;44.738;20.980;2022-08-03T08:28:04;100848.00;;;48.62;nan
39887;BME280;25559;44.738;20.980;2022-08-03T08:30:31;100853.06;;;49.12;nan
39887;BME280;25559;44.738;20.980;2022-08-03T08:32:57;100857.16;;;49.50;nan
39887;BME280;25559;44.738;20.980;2022-08-03T08:35:24;100852.97;;;49.94;nan
39887;BME280;25559;44.738;20.980;2022-08-03T08:37:50;100861.34;;;50.39;nan
39887;BME280;25559;44.738;20.980;2022-08-03T08:40:17;100853.97;;;50.74;nan
39887;BME280;25559;44.738;20.980;2022-08-03T08:42:44;100852.59;;;51.11;nan
39887;BME280;25559;44.738;20.980;2022-08-03T08:45:11;100858.63;;;51.47;nan
39887;BME280;25559;44.738;20.980;2022-08-03T08:47:43;100854.09;;;51.86;nan
39887;BME280;25559;44.738;20.980;2022-08-03T08:50:09;100848.84;;;52.28;nan
39887;BME280;25559;44.738;20.980;2022-08-03T08:52:35;100849.50;;;52.82;nan
39887;BME280;25559;44.738;20.980;2022-08-03T08:55:06;100846.16;;;53.32;nan
39887;BME280;25559;44.738;20.980;2022-08-03T08:57:36;100849.72;;;53.79;nan
39887;BME280;25559;44.738;20.980;2022-08-03T09:00:10;100850.19;;;54.37;nan
39887;BME280;25559;44.738;20.980;2022-08-03T09:02:38;100844.16;;;54.80;nan
39887;BME280;25559;44.738;20.980;2022-08-03T09:05:12;100847.28;;;55.41;nan
39887;BME280;25559;44.738;20.980;2022-08-03T09:07:39;100850.78;;;56.04;nan
39887;BME280;25559;44.738;20.980;2022-08-03T09:10:06;100854.44;;;56.66;nan
39887;BME280;25559;44.738;20.980;2022-08-03T09:12:37;100848.63;;;57.24;nan
39887;BME280;25559;44.738;20.980;2022-08-03T09:17:46;100844.84;;;58.18;nan
39887;BME280;25559;44.738;20.980;2022-08-03T09:20:12;100847.75;;;58.43;nan
39887;BME280;25559;44.738;20.980;2022-08-03T09:25:15;100853.09;;;59.02;nan
39887;BME280;25559;44.738;20.980;2022-08-03T09:27:42;100852.56;;;59.34;nan
39887;BME280;25559;44.738;20.980;2022-08-03T09:30:16;100846.16;;;59.70;nan
39887;BME280;25559;44.738;20.980;2022-08-03T09:32:42;100847.63;;;60.05;nan
39887;BME280;25559;44.738;20.980;2022-08-03T09:35:11;100857.81;;;60.25;nan
39887;BME280;25559;44.738;20.980;2022-08-03T09:37:37;100842.34;;;60.16;nan
39887;BME280;25559;44.738;20.980;2022-08-03T09:40:04;100840.16;;;59.97;nan
39887;BME280;25559;44.738;20.980;2022-08-03T09:42:30;100846.59;;;59.72;nan
39887;BME280;25559;44.738;20.980;2022-08-03T09:44:55;100831.69;;;59.44;nan
39887;BME280;25559;44.738;20.980;2022-08-03T09:47:48;100831.03;;;58.76;nan
39887;BME280;25559;44.738;20.980;2022-08-03T09:50:14;100824.03;;;57.86;nan
39887;BME280;25559;44.738;20.980;2022-08-03T09:52:40;100827.75;;;56.65;nan
39887;BME280;25559;44.738;20.980;2022-08-03T09:55:13;100815.47;;;55.16;nan
39887;BME280;25559;44.738;20.980;2022-08-03T09:57:39;100810.91;;;53.65;nan
39887;BME280;25559;44.738;20.980;2022-08-03T10:00:14;100810.28;;;51.98;nan
39887;BME280;25559;44.738;20.980;2022-08-03T10:02:42;100799.44;;;50.10;nan
39887;BME280;25559;44.738;20.980;2022-08-03T10:05:10;100802.69;;;48.80;nan
39887;BME280;25559;44.738;20.980;2022-08-03T10:07:45;100800.25;;;47.52;nan
39887;BME280;25559;44.738;20.980;2022-08-03T10:10:11;100789.59;;;46.36;nan
39887;BME280;25559;44.738;20.980;2022-08-03T10:12:39;100782.63;;;45.28;nan
39887;BME280;25559;44.738;20.980;2022-08-03T10:15:05;100776.34;;;44.36;nan
39887;BME280;25559;44.738;20.980;2022-08-03T10:17:31;100777.28;;;43.54;nan
39887;BME280;25559;44.738;20.980;2022-08-03T10:19:57;100777.47;;;42.74;nan
39887;BME280;25559;44.738;20.980;2022-08-03T10:22:27;100772.41;;;41.73;nan
39887;BME280;25559;44.738;20.980;2022-08-03T10:24:57;100767.00;;;41.16;nan
39887;BME280;25559;44.738;20.980;2022-08-03T10:27:24;100765.50;;;40.57;nan
39887;BME280;25559;44.738;20.980;2022-08-03T10:29:52;100760.06;;;40.05;nan
39887;BME280;25559;44.738;20.980;2022-08-03T10:32:54;100754.06;;;39.49;nan
39887;BME280;25559;44.738;20.980;2022-08-03T10:35:24;100759.47;;;39.02;nan
39887;BME280;25559;44.738;20.980;2022-08-03T10:38:01;100747.69;;;38.55;nan
39887;BME280;25559;44.738;20.980;2022-08-03T10:40:30;100754.25;;;38.26;nan
39887;BME280;25559;44.738;20.980;2022-08-03T10:43:02;100747.16;;;37.90;nan
39887;BME280;25559;44.738;20.980;2022-08-03T10:45:33;100738.88;;;37.63;nan
39887;BME280;25559;44.738;20.980;2022-08-03T10:48:01;100729.53;;;37.37;nan
39887;BME280;25559;44.738;20.980;2022-08-03T10:50:27;100737.16;;;37.05;nan
39887;BME280;25559;44.738;20.980;2022-08-03T10:53:00;100741.13;;;36.88;nan
39887;BME280;25559;44.738;20.980;2022-08-03T10:55:39;100737.56;;;36.66;nan
39887;BME280;25559;44.738;20.980;2022-08-03T11:01:03;100739.19;;;36.15;nan
39887;BME280;25559;44.738;20.980;2022-08-03T11:03:29;100733.66;;;36.02;nan
39887;BME280;25559;44.738;20.980;2022-08-03T11:06:15;100733.47;;;35.88;nan
39887;BME280;25559;44.738;20.980;2022-08-03T11:08:48;100731.09;;;35.70;nan
39887;BME280;25559;44.738;20.980;2022-08-03T11:14:18;100718.53;;;35.48;nan
39887;BME280;25559;44.738;20.980;2022-08-03T11:17:05;100710.66;;;35.23;nan
39887;BME280;25559;44.738;20.980;2022-08-03T11:19:57;100716.53;;;35.03;nan
39887;BME280;25559;44.738;20.980;2022-08-03T11:22:24;100710.66;;;35.00;nan
39887;BME280;25559;44.738;20.980;2022-08-03T11:27:29;100697.63;;;34.88;nan
39887;BME280;25559;44.738;20.980;2022-08-03T11:30:08;100697.50;;;34.82;nan
39887;BME280;25559;44.738;20.980;2022-08-03T11:40:57;100695.00;;;33.20;nan
39887;BME280;25559;44.738;20.980;2022-08-03T11:46:00;100687.75;;;32.96;nan
39887;BME280;25559;44.738;20.980;2022-08-03T11:48:34;100684.41;;;32.94;nan
39887;BME280;25559;44.738;20.980;2022-08-03T11:51:01;100676.38;;;32.94;nan
39887;BME280;25559;44.738;20.980;2022-08-03T11:53:27;100675.19;;;32.97;nan
39887;BME280;25559;44.738;20.980;2022-08-03T11:55:56;100672.34;;;32.98;nan
39887;BME280;25559;44.738;20.980;2022-08-03T11:58:23;100674.19;;;32.98;nan
39887;BME280;25559;44.738;20.980;2022-08-03T12:00:49;100669.50;;;33.00;nan
39887;BME280;25559;44.738;20.980;2022-08-03T12:03:17;100668.63;;;32.99;nan
39887;BME280;25559;44.738;20.980;2022-08-03T12:05:46;100663.09;;;33.01;nan
39887;BME280;25559;44.738;20.980;2022-08-03T12:08:15;100649.69;;;33.01;nan
39887;BME280;25559;44.738;20.980;2022-08-03T12:10:48;100655.06;;;32.92;nan
39887;BME280;25559;44.738;20.980;2022-08-03T12:13:14;100647.16;;;32.74;nan
39887;BME280;25559;44.738;20.980;2022-08-03T12:15:39;100648.66;;;32.69;nan
39887;BME280;25559;44.738;20.980;2022-08-03T12:18:16;100641.81;;;32.66;nan
39887;BME280;25559;44.738;20.980;2022-08-03T12:20:43;100642.63;;;32.67;nan
39887;BME280;25559;44.738;20.980;2022-08-03T12:23:09;100646.78;;;32.61;nan
39887;BME280;25559;44.738;20.980;2022-08-03T12:25:36;100638.56;;;32.54;nan
39887;BME280;25559;44.738;20.980;2022-08-03T12:30:33;100634.00;;;32.38;nan
39887;BME280;25559;44.738;20.980;2022-08-03T12:33:16;100629.50;;;32.47;nan
39887;BME280;25559;44.738;20.980;2022-08-03T12:35:45;100622.22;;;32.15;nan
39887;BME280;25559;44.738;20.980;2022-08-03T12:38:11;100628.91;;;32.19;nan
39887;BME280;25559;44.738;20.980;2022-08-03T12:40:37;100632.78;;;32.24;nan
39887;BME280;25559;44.738;20.980;2022-08-03T12:43:13;100642.69;;;32.32;nan
39887;BME280;25559;44.738;20.980;2022-08-03T12:45:39;100632.84;;;32.41;nan
39887;BME280;25559;44.738;20.980;2022-08-03T12:48:08;100628.84;;;32.45;nan
39887;BME280;25559;44.738;20.980;2022-08-03T12:50:38;100625.81;;;32.56;nan
39887;BME280;25559;44.738;20.980;2022-08-03T12:53:07;100626.19;;;32.62;nan
39887;BME280;25559;44.738;20.980;2022-08-03T12:55:33;100611.72;;;32.63;nan
39887;BME280;25559;44.738;20.980;2022-08-03T12:58:03;100629.38;;;32.73;nan
39887;BME280;25559;44.738;20.980;2022-08-03T13:00:29;100622.53;;;32.71;nan
39887;BME280;25559;44.738;20.980;2022-08-03T13:03:03;100613.09;;;32.58;nan
39887;BME280;25559;44.738;20.980;2022-08-03T13:05:30;100614.97;;;32.66;nan
39887;BME280;25559;44.738;20.980;2022-08-03T13:07:56;100614.81;;;32.68;nan
39887;BME280;25559;44.738;20.980;2022-08-03T13:10:32;100608.41;;;32.69;nan
39887;BME280;25559;44.738;20.980;2022-08-03T13:12:59;100609.09;;;32.71;nan
39887;BME280;25559;44.738;20.980;2022-08-03T13:15:27;100615.78;;;32.75;nan
39887;BME280;25559;44.738;20.980;2022-08-03T13:17:57;100613.09;;;32.75;nan
39887;BME280;25559;44.738;20.980;2022-08-03T13:20:22;100607.75;;;32.75;nan
39887;BME280;25559;44.738;20.980;2022-08-03T13:22:49;100603.41;;;32.74;nan
39887;BME280;25559;44.738;20.980;2022-08-03T13:25:15;100604.03;;;32.59;nan
39887;BME280;25559;44.738;20.980;2022-08-03T13:27:40;100596.81;;;32.44;nan
39887;BME280;25559;44.738;20.980;2022-08-03T13:30:07;100592.94;;;32.46;nan
39887;BME280;25559;44.738;20.980;2022-08-03T13:32:33;100590.44;;;32.53;nan
39887;BME280;25559;44.738;20.980;2022-08-03T13:34:59;100593.97;;;32.62;nan
39887;BME280;25559;44.738;20.980;2022-08-03T13:37:27;100601.56;;;32.66;nan
39887;BME280;25559;44.738;20.980;2022-08-03T13:39:53;100597.03;;;32.67;nan
39887;BME280;25559;44.738;20.980;2022-08-03T13:42:18;100596.84;;;32.68;nan